sensor_id;sensor_type;location;lat;lon;timestamp;P1;durP1;ratioP1;P2;durP2;ratioP2
81154;SDS011;70631;50.436;7.826;2023-11-19T00:01:22;0.60;;;0.50;;
81154;SDS011;70631;50.436;7.826;2023-11-19T00:03:47;1.00;;;0.90;;
81154;SDS011;70631;50.436;7.826;2023-11-19T00:06:13;0.50;;;0.50;;
81154;SDS011;70631;50.436;7.826;2023-11-19T00:08:38;0.70;;;0.70;;
81154;SDS011;70631;50.436;7.826;2023-11-19T00:11:04;1.23;;;0.73;;
81154;SDS011;70631;50.436;7.826;2023-11-19T00:13:29;0.85;;;0.73;;
81154;SDS011;70631;50.436;7.826;2023-11-19T00:15:55;0.52;;;0.35;;
81154;SDS011;70631;50.436;7.826;2023-11-19T00:18:21;0.40;;;0.40;;
81154;SDS011;70631;50.436;7.826;2023-11-19T00:20:47;0.22;;;0.22;;
81154;SDS011;70631;50.436;7.826;2023-11-19T00:23:12;0.50;;;0.30;;
81154;SDS011;70631;50.436;7.826;2023-11-19T00:25:37;1.13;;;0.30;;
81154;SDS011;70631;50.436;7.826;2023-11-19T00:28:03;1.67;;;0.40;;
81154;SDS011;70631;50.436;7.826;2023-11-19T00:30:29;0.63;;;0.30;;
81154;SDS011;70631;50.436;7.826;2023-11-19T00:32:56;0.50;;;0.50;;
81154;SDS011;70631;50.436;7.826;2023-11-19T00:35:21;0.23;;;0.23;;
81154;SDS011;70631;50.436;7.826;2023-11-19T00:37:46;0.30;;;0.30;;
81154;SDS011;70631;50.436;7.826;2023-11-19T00:40:12;0.73;;;0.20;;
81154;SDS011;70631;50.436;7.826;2023-11-19T00:42:38;0.30;;;0.30;;
81154;SDS011;70631;50.436;7.826;2023-11-19T00:45:04;0.47;;;0.30;;
81154;SDS011;70631;50.436;7.826;2023-11-19T00:47:33;0.55;;;0.40;;
81154;SDS011;70631;50.436;7.826;2023-11-19T00:50:00;0.32;;;0.30;;
81154;SDS011;70631;50.436;7.826;2023-11-19T00:52:25;0.70;;;0.30;;
81154;SDS011;70631;50.436;7.826;2023-11-19T00:54:53;0.30;;;0.30;;
81154;SDS011;70631;50.436;7.826;2023-11-19T00:57:18;0.38;;;0.22;;
81154;SDS011;70631;50.436;7.826;2023-11-19T00:59:44;0.63;;;0.40;;
81154;SDS011;70631;50.436;7.826;2023-11-19T01:02:09;0.68;;;0.30;;
81154;SDS011;70631;50.436;7.826;2023-11-19T01:04:35;0.93;;;0.20;;
81154;SDS011;70631;50.436;7.826;2023-11-19T01:07:03;0.45;;;0.45;;
81154;SDS011;70631;50.436;7.826;2023-11-19T01:09:30;0.90;;;0.30;;
81154;SDS011;70631;50.436;7.826;2023-11-19T01:11:57;1.05;;;0.40;;
81154;SDS011;70631;50.436;7.826;2023-11-19T01:14:23;0.40;;;0.30;;
81154;SDS011;70631;50.436;7.826;2023-11-19T01:16:48;0.47;;;0.40;;
81154;SDS011;70631;50.436;7.826;2023-11-19T01:19:14;0.30;;;0.30;;
81154;SDS011;70631;50.436;7.826;2023-11-19T01:21:39;0.60;;;0.30;;
81154;SDS011;70631;50.436;7.826;2023-11-19T01:24:04;1.30;;;0.40;;
81154;SDS011;70631;50.436;7.826;2023-11-19T01:26:34;0.20;;;0.20;;
81154;SDS011;70631;50.436;7.826;2023-11-19T01:28:59;0.47;;;0.35;;
81154;SDS011;70631;50.436;7.826;2023-11-19T01:31:26;0.30;;;0.30;;
81154;SDS011;70631;50.436;7.826;2023-11-19T01:33:51;0.40;;;0.30;;
81154;SDS011;70631;50.436;7.826;2023-11-19T01:36:16;0.40;;;0.40;;
81154;SDS011;70631;50.436;7.826;2023-11-19T01:38:41;0.60;;;0.40;;
81154;SDS011;70631;50.436;7.826;2023-11-19T01:41:07;0.40;;;0.40;;
81154;SDS011;70631;50.436;7.826;2023-11-19T01:43:36;2.97;;;0.30;;
81154;SDS011;70631;50.436;7.826;2023-11-19T01:46:04;0.30;;;0.30;;
81154;SDS011;70631;50.436;7.826;2023-11-19T01:48:31;0.77;;;0.25;;
81154;SDS011;70631;50.436;7.826;2023-11-19T01:50:57;0.60;;;0.43;;
81154;SDS011;70631;50.436;7.826;2023-11-19T01:53:23;0.40;;;0.20;;
81154;SDS011;70631;50.436;7.826;2023-11-19T01:55:49;0.52;;;0.30;;
81154;SDS011;70631;50.436;7.826;2023-11-19T01:58:15;0.47;;;0.22;;
81154;SDS011;70631;50.436;7.826;2023-11-19T02:00:41;0.20;;;0.20;;
81154;SDS011;70631;50.436;7.826;2023-11-19T02:03:08;1.58;;;0.50;;
81154;SDS011;70631;50.436;7.826;2023-11-19T02:05:33;0.68;;;0.30;;
81154;SDS011;70631;50.436;7.826;2023-11-19T02:07:59;0.43;;;0.30;;
81154;SDS011;70631;50.436;7.826;2023-11-19T02:10:25;0.35;;;0.22;;
81154;SDS011;70631;50.436;7.826;2023-11-19T02:12:50;0.73;;;0.33;;
81154;SDS011;70631;50.436;7.826;2023-11-19T02:15:16;0.38;;;0.25;;
81154;SDS011;70631;50.436;7.826;2023-11-19T02:17:44;0.30;;;0.25;;
81154;SDS011;70631;50.436;7.826;2023-11-19T02:20:09;0.13;;;0.10;;
81154;SDS011;70631;50.436;7.826;2023-11-19T02:22:37;2.33;;;0.30;;
81154;SDS011;70631;50.436;7.826;2023-11-19T02:25:06;0.75;;;0.28;;
81154;SDS011;70631;50.436;7.826;2023-11-19T02:28:07;1.52;;;0.30;;
81154;SDS011;70631;50.436;7.826;2023-11-19T02:30:26;1.00;;;0.50;;
81154;SDS011;70631;50.436;7.826;2023-11-19T02:32:53;3.35;;;0.40;;
81154;SDS011;70631;50.436;7.826;2023-11-19T02:35:19;2.78;;;0.35;;
81154;SDS011;70631;50.436;7.826;2023-11-19T02:37:46;0.50;;;0.40;;
81154;SDS011;70631;50.436;7.826;2023-11-19T02:40:12;0.68;;;0.20;;
81154;SDS011;70631;50.436;7.826;2023-11-19T02:42:38;0.45;;;0.40;;
81154;SDS011;70631;50.436;7.826;2023-11-19T02:45:03;0.20;;;0.20;;
81154;SDS011;70631;50.436;7.826;2023-11-19T02:47:31;0.60;;;0.30;;
81154;SDS011;70631;50.436;7.826;2023-11-19T02:49:56;0.53;;;0.30;;
81154;SDS011;70631;50.436;7.826;2023-11-19T02:52:22;1.65;;;0.28;;
81154;SDS011;70631;50.436;7.826;2023-11-19T02:54:47;0.43;;;0.22;;
81154;SDS011;70631;50.436;7.826;2023-11-19T02:57:13;0.52;;;0.20;;
81154;SDS011;70631;50.436;7.826;2023-11-19T02:59:39;0.40;;;0.40;;
81154;SDS011;70631;50.436;7.826;2023-11-19T03:02:06;0.10;;;0.10;;
81154;SDS011;70631;50.436;7.826;2023-11-19T03:04:36;0.30;;;0.30;;
81154;SDS011;70631;50.436;7.826;2023-11-19T03:07:01;0.65;;;0.30;;
81154;SDS011;70631;50.436;7.826;2023-11-19T03:09:27;0.20;;;0.20;;
81154;SDS011;70631;50.436;7.826;2023-11-19T03:11:54;0.38;;;0.20;;
81154;SDS011;70631;50.436;7.826;2023-11-19T03:14:19;1.83;;;0.20;;
81154;SDS011;70631;50.436;7.826;2023-11-19T03:16:45;0.43;;;0.30;;
81154;SDS011;70631;50.436;7.826;2023-11-19T03:19:13;0.82;;;0.30;;
81154;SDS011;70631;50.436;7.826;2023-11-19T03:21:38;0.97;;;0.20;;
81154;SDS011;70631;50.436;7.826;2023-11-19T03:24:04;0.23;;;0.20;;
81154;SDS011;70631;50.436;7.826;2023-11-19T03:26:29;1.00;;;0.20;;
81154;SDS011;70631;50.436;7.826;2023-11-19T03:28:55;0.60;;;0.30;;
81154;SDS011;70631;50.436;7.826;2023-11-19T03:31:21;0.40;;;0.20;;
81154;SDS011;70631;50.436;7.826;2023-11-19T03:33:47;0.20;;;0.20;;
81154;SDS011;70631;50.436;7.826;2023-11-19T03:36:12;0.37;;;0.37;;
81154;SDS011;70631;50.436;7.826;2023-11-19T03:38:38;0.20;;;0.20;;
81154;SDS011;70631;50.436;7.826;2023-11-19T03:41:10;0.38;;;0.10;;
81154;SDS011;70631;50.436;7.826;2023-11-19T03:43:39;0.10;;;0.10;;
81154;SDS011;70631;50.436;7.826;2023-11-19T03:46:05;0.40;;;0.28;;
81154;SDS011;70631;50.436;7.826;2023-11-19T03:48:40;0.00;;;0.00;;
81154;SDS011;70631;50.436;7.826;2023-11-19T03:51:05;0.67;;;0.20;;
81154;SDS011;70631;50.436;7.826;2023-11-19T03:53:30;0.20;;;0.17;;
81154;SDS011;70631;50.436;7.826;2023-11-19T03:55:56;0.10;;;0.10;;
81154;SDS011;70631;50.436;7.826;2023-11-19T03:58:21;0.43;;;0.20;;
81154;SDS011;70631;50.436;7.826;2023-11-19T04:00:46;0.10;;;0.10;;
81154;SDS011;70631;50.436;7.826;2023-11-19T04:03:12;0.10;;;0.10;;
81154;SDS011;70631;50.436;7.826;2023-11-19T04:05:37;0.00;;;0.00;;
81154;SDS011;70631;50.436;7.826;2023-11-19T04:08:03;0.30;;;0.20;;
81154;SDS011;70631;50.436;7.826;2023-11-19T04:10:28;0.20;;;0.20;;
81154;SDS011;70631;50.436;7.826;2023-11-19T04:12:53;0.00;;;0.00;;
81154;SDS011;70631;50.436;7.826;2023-11-19T04:15:19;0.30;;;0.10;;
81154;SDS011;70631;50.436;7.826;2023-11-19T04:17:44;0.47;;;0.10;;
81154;SDS011;70631;50.436;7.826;2023-11-19T04:20:10;0.10;;;0.10;;
81154;SDS011;70631;50.436;7.826;2023-11-19T04:22:38;0.68;;;0.17;;
81154;SDS011;70631;50.436;7.826;2023-11-19T04:25:03;0.50;;;0.20;;
81154;SDS011;70631;50.436;7.826;2023-11-19T04:27:29;0.10;;;0.10;;
81154;SDS011;70631;50.436;7.826;2023-11-19T04:29:55;0.95;;;0.20;;
81154;SDS011;70631;50.436;7.826;2023-11-19T04:32:20;0.30;;;0.20;;
81154;SDS011;70631;50.436;7.826;2023-11-19T04:34:46;0.10;;;0.10;;
81154;SDS011;70631;50.436;7.826;2023-11-19T04:37:11;2.57;;;0.10;;
81154;SDS011;70631;50.436;7.826;2023-11-19T04:39:36;0.83;;;0.10;;
81154;SDS011;70631;50.436;7.826;2023-11-19T04:42:02;0.30;;;0.10;;
81154;SDS011;70631;50.436;7.826;2023-11-19T04:44:27;0.00;;;0.00;;
81154;SDS011;70631;50.436;7.826;2023-11-19T04:46:54;0.05;;;0.03;;
81154;SDS011;70631;50.436;7.826;2023-11-19T04:49:19;0.10;;;0.03;;
81154;SDS011;70631;50.436;7.826;2023-11-19T04:51:45;0.10;;;0.00;;
81154;SDS011;70631;50.436;7.826;2023-11-19T04:54:14;0.30;;;0.20;;
81154;SDS011;70631;50.436;7.826;2023-11-19T04:56:39;0.00;;;0.00;;
81154;SDS011;70631;50.436;7.826;2023-11-19T04:59:05;0.10;;;0.10;;
81154;SDS011;70631;50.436;7.826;2023-11-19T05:01:34;0.20;;;0.10;;
81154;SDS011;70631;50.436;7.826;2023-11-19T05:04:00;0.03;;;0.00;;
81154;SDS011;70631;50.436;7.826;2023-11-19T05:06:27;0.10;;;0.10;;
81154;SDS011;70631;50.436;7.826;2023-11-19T05:08:54;0.80;;;0.10;;
81154;SDS011;70631;50.436;7.826;2023-11-19T05:11:19;0.25;;;0.20;;
81154;SDS011;70631;50.436;7.826;2023-11-19T05:13:45;1.63;;;0.17;;
81154;SDS011;70631;50.436;7.826;2023-11-19T05:16:10;1.38;;;0.10;;
81154;SDS011;70631;50.436;7.826;2023-11-19T05:18:39;0.10;;;0.10;;
81154;SDS011;70631;50.436;7.826;2023-11-19T05:21:04;0.20;;;0.20;;
81154;SDS011;70631;50.436;7.826;2023-11-19T05:23:30;0.43;;;0.28;;
81154;SDS011;70631;50.436;7.826;2023-11-19T05:25:55;0.30;;;0.20;;
81154;SDS011;70631;50.436;7.826;2023-11-19T05:28:23;2.00;;;0.30;;
81154;SDS011;70631;50.436;7.826;2023-11-19T05:30:49;0.20;;;0.20;;
81154;SDS011;70631;50.436;7.826;2023-11-19T05:33:15;0.47;;;0.20;;
81154;SDS011;70631;50.436;7.826;2023-11-19T05:35:40;0.33;;;0.30;;
81154;SDS011;70631;50.436;7.826;2023-11-19T05:38:05;0.97;;;0.40;;
81154;SDS011;70631;50.436;7.826;2023-11-19T05:40:31;0.70;;;0.30;;
81154;SDS011;70631;50.436;7.826;2023-11-19T05:42:56;0.60;;;0.40;;
81154;SDS011;70631;50.436;7.826;2023-11-19T05:45:21;0.93;;;0.30;;
81154;SDS011;70631;50.436;7.826;2023-11-19T05:47:46;0.80;;;0.50;;
81154;SDS011;70631;50.436;7.826;2023-11-19T05:50:12;1.40;;;0.50;;
81154;SDS011;70631;50.436;7.826;2023-11-19T05:52:37;0.60;;;0.57;;
81154;SDS011;70631;50.436;7.826;2023-11-19T05:55:03;1.50;;;0.50;;
81154;SDS011;70631;50.436;7.826;2023-11-19T05:57:35;0.57;;;0.35;;
81154;SDS011;70631;50.436;7.826;2023-11-19T06:00:01;0.60;;;0.50;;
81154;SDS011;70631;50.436;7.826;2023-11-19T06:02:28;1.05;;;0.35;;
81154;SDS011;70631;50.436;7.826;2023-11-19T06:04:54;1.27;;;0.38;;
81154;SDS011;70631;50.436;7.826;2023-11-19T06:07:19;0.63;;;0.50;;
81154;SDS011;70631;50.436;7.826;2023-11-19T06:09:45;1.75;;;0.30;;
81154;SDS011;70631;50.436;7.826;2023-11-19T06:12:10;3.17;;;0.60;;
81154;SDS011;70631;50.436;7.826;2023-11-19T06:14:35;1.92;;;0.60;;
81154;SDS011;70631;50.436;7.826;2023-11-19T06:17:01;1.10;;;0.60;;
81154;SDS011;70631;50.436;7.826;2023-11-19T06:19:26;2.60;;;0.67;;
81154;SDS011;70631;50.436;7.826;2023-11-19T06:21:51;1.50;;;0.50;;
81154;SDS011;70631;50.436;7.826;2023-11-19T06:24:17;1.37;;;1.23;;
81154;SDS011;70631;50.436;7.826;2023-11-19T06:26:42;1.37;;;0.80;;
81154;SDS011;70631;50.436;7.826;2023-11-19T06:29:08;2.50;;;1.50;;
81154;SDS011;70631;50.436;7.826;2023-11-19T06:31:33;1.30;;;0.70;;
81154;SDS011;70631;50.436;7.826;2023-11-19T06:33:58;1.30;;;0.87;;
81154;SDS011;70631;50.436;7.826;2023-11-19T06:36:23;3.60;;;0.67;;
81154;SDS011;70631;50.436;7.826;2023-11-19T06:38:49;1.93;;;0.63;;
81154;SDS011;70631;50.436;7.826;2023-11-19T06:41:14;1.37;;;0.80;;
81154;SDS011;70631;50.436;7.826;2023-11-19T06:43:39;2.13;;;0.60;;
81154;SDS011;70631;50.436;7.826;2023-11-19T06:46:05;1.95;;;0.73;;
81154;SDS011;70631;50.436;7.826;2023-11-19T06:48:33;1.00;;;0.80;;
81154;SDS011;70631;50.436;7.826;2023-11-19T06:50:59;2.20;;;0.85;;
81154;SDS011;70631;50.436;7.826;2023-11-19T06:53:25;3.20;;;1.35;;
81154;SDS011;70631;50.436;7.826;2023-11-19T06:55:52;2.47;;;0.80;;
81154;SDS011;70631;50.436;7.826;2023-11-19T06:58:18;2.72;;;0.80;;
81154;SDS011;70631;50.436;7.826;2023-11-19T07:00:43;2.67;;;1.00;;
81154;SDS011;70631;50.436;7.826;2023-11-19T07:03:09;2.75;;;0.98;;
81154;SDS011;70631;50.436;7.826;2023-11-19T07:05:38;3.92;;;1.38;;
81154;SDS011;70631;50.436;7.826;2023-11-19T07:08:03;5.10;;;1.08;;
81154;SDS011;70631;50.436;7.826;2023-11-19T07:10:32;3.35;;;1.15;;
81154;SDS011;70631;50.436;7.826;2023-11-19T07:12:57;2.47;;;0.93;;
81154;SDS011;70631;50.436;7.826;2023-11-19T07:15:22;3.92;;;1.80;;
81154;SDS011;70631;50.436;7.826;2023-11-19T07:17:48;1.33;;;1.00;;
81154;SDS011;70631;50.436;7.826;2023-11-19T07:20:13;3.60;;;1.47;;
81154;SDS011;70631;50.436;7.826;2023-11-19T07:22:42;2.90;;;1.23;;
81154;SDS011;70631;50.436;7.826;2023-11-19T07:25:08;6.65;;;1.52;;
81154;SDS011;70631;50.436;7.826;2023-11-19T07:27:33;2.58;;;1.80;;
81154;SDS011;70631;50.436;7.826;2023-11-19T07:29:59;3.23;;;1.10;;
81154;SDS011;70631;50.436;7.826;2023-11-19T07:32:24;2.08;;;1.10;;
81154;SDS011;70631;50.436;7.826;2023-11-19T07:34:50;2.17;;;0.97;;
81154;SDS011;70631;50.436;7.826;2023-11-19T07:37:15;4.95;;;1.33;;
81154;SDS011;70631;50.436;7.826;2023-11-19T07:39:41;2.53;;;1.05;;
81154;SDS011;70631;50.436;7.826;2023-11-19T07:42:07;4.17;;;0.90;;
81154;SDS011;70631;50.436;7.826;2023-11-19T07:44:34;4.63;;;1.05;;
81154;SDS011;70631;50.436;7.826;2023-11-19T07:46:59;5.53;;;1.60;;
81154;SDS011;70631;50.436;7.826;2023-11-19T07:49:25;4.93;;;1.13;;
81154;SDS011;70631;50.436;7.826;2023-11-19T07:51:50;5.50;;;1.30;;
81154;SDS011;70631;50.436;7.826;2023-11-19T07:54:15;7.70;;;2.03;;
81154;SDS011;70631;50.436;7.826;2023-11-19T07:56:40;10.17;;;1.30;;
81154;SDS011;70631;50.436;7.826;2023-11-19T07:59:06;6.50;;;1.67;;
81154;SDS011;70631;50.436;7.826;2023-11-19T08:01:31;4.90;;;1.38;;
81154;SDS011;70631;50.436;7.826;2023-11-19T08:03:57;6.45;;;1.50;;
81154;SDS011;70631;50.436;7.826;2023-11-19T08:06:22;5.25;;;1.60;;
81154;SDS011;70631;50.436;7.826;2023-11-19T08:08:48;4.33;;;1.37;;
81154;SDS011;70631;50.436;7.826;2023-11-19T08:11:13;5.33;;;1.37;;
81154;SDS011;70631;50.436;7.826;2023-11-19T08:13:40;9.95;;;2.45;;
81154;SDS011;70631;50.436;7.826;2023-11-19T08:16:05;12.37;;;3.10;;
81154;SDS011;70631;50.436;7.826;2023-11-19T08:18:31;3.90;;;1.90;;
81154;SDS011;70631;50.436;7.826;2023-11-19T08:20:56;8.67;;;1.63;;
81154;SDS011;70631;50.436;7.826;2023-11-19T08:23:23;9.27;;;1.65;;
81154;SDS011;70631;50.436;7.826;2023-11-19T08:25:50;7.32;;;1.55;;
81154;SDS011;70631;50.436;7.826;2023-11-19T08:28:16;8.48;;;4.30;;
81154;SDS011;70631;50.436;7.826;2023-11-19T08:30:41;9.93;;;1.90;;
81154;SDS011;70631;50.436;7.826;2023-11-19T08:33:06;8.25;;;1.92;;
81154;SDS011;70631;50.436;7.826;2023-11-19T08:35:32;9.23;;;2.07;;
81154;SDS011;70631;50.436;7.826;2023-11-19T08:37:57;9.50;;;1.85;;
81154;SDS011;70631;50.436;7.826;2023-11-19T08:40:24;12.27;;;2.58;;
81154;SDS011;70631;50.436;7.826;2023-11-19T08:42:50;4.90;;;1.60;;
81154;SDS011;70631;50.436;7.826;2023-11-19T08:45:16;8.33;;;1.87;;
81154;SDS011;70631;50.436;7.826;2023-11-19T08:47:41;8.50;;;2.38;;
81154;SDS011;70631;50.436;7.826;2023-11-19T08:50:06;8.53;;;1.43;;
81154;SDS011;70631;50.436;7.826;2023-11-19T08:52:33;7.68;;;1.63;;
81154;SDS011;70631;50.436;7.826;2023-11-19T08:54:58;6.40;;;2.20;;
81154;SDS011;70631;50.436;7.826;2023-11-19T08:57:23;8.13;;;1.73;;
81154;SDS011;70631;50.436;7.826;2023-11-19T08:59:49;10.18;;;2.67;;
81154;SDS011;70631;50.436;7.826;2023-11-19T09:02:14;9.93;;;1.93;;
81154;SDS011;70631;50.436;7.826;2023-11-19T09:04:39;4.80;;;1.70;;
81154;SDS011;70631;50.436;7.826;2023-11-19T09:07:06;6.70;;;1.38;;
81154;SDS011;70631;50.436;7.826;2023-11-19T09:09:31;7.50;;;1.73;;
81154;SDS011;70631;50.436;7.826;2023-11-19T09:12:00;7.00;;;2.10;;
81154;SDS011;70631;50.436;7.826;2023-11-19T09:14:26;10.73;;;2.27;;
81154;SDS011;70631;50.436;7.826;2023-11-19T09:16:51;6.47;;;1.50;;
81154;SDS011;70631;50.436;7.826;2023-11-19T09:19:17;5.85;;;1.88;;
81154;SDS011;70631;50.436;7.826;2023-11-19T09:21:43;4.45;;;1.10;;
81154;SDS011;70631;50.436;7.826;2023-11-19T09:24:08;8.20;;;2.00;;
81154;SDS011;70631;50.436;7.826;2023-11-19T09:26:34;8.00;;;2.63;;
81154;SDS011;70631;50.436;7.826;2023-11-19T09:29:01;8.55;;;2.30;;
81154;SDS011;70631;50.436;7.826;2023-11-19T09:31:26;5.40;;;1.93;;
81154;SDS011;70631;50.436;7.826;2023-11-19T09:33:51;9.07;;;1.60;;
81154;SDS011;70631;50.436;7.826;2023-11-19T09:36:16;9.43;;;2.17;;
81154;SDS011;70631;50.436;7.826;2023-11-19T09:38:42;7.33;;;2.33;;
81154;SDS011;70631;50.436;7.826;2023-11-19T09:41:09;9.95;;;2.20;;
81154;SDS011;70631;50.436;7.826;2023-11-19T09:43:36;8.27;;;2.20;;
81154;SDS011;70631;50.436;7.826;2023-11-19T09:46:04;11.70;;;1.50;;
81154;SDS011;70631;50.436;7.826;2023-11-19T09:48:35;9.30;;;2.28;;
81154;SDS011;70631;50.436;7.826;2023-11-19T09:51:02;11.77;;;2.83;;
81154;SDS011;70631;50.436;7.826;2023-11-19T09:53:29;14.27;;;2.17;;
81154;SDS011;70631;50.436;7.826;2023-11-19T09:55:55;11.10;;;2.05;;
81154;SDS011;70631;50.436;7.826;2023-11-19T09:58:20;13.27;;;2.05;;
81154;SDS011;70631;50.436;7.826;2023-11-19T10:00:46;8.15;;;2.22;;
81154;SDS011;70631;50.436;7.826;2023-11-19T10:03:12;9.05;;;1.75;;
81154;SDS011;70631;50.436;7.826;2023-11-19T10:05:38;7.65;;;2.60;;
81154;SDS011;70631;50.436;7.826;2023-11-19T10:08:05;9.00;;;1.98;;
81154;SDS011;70631;50.436;7.826;2023-11-19T10:10:30;9.02;;;2.20;;
81154;SDS011;70631;50.436;7.826;2023-11-19T10:12:56;9.13;;;2.30;;
81154;SDS011;70631;50.436;7.826;2023-11-19T10:15:22;9.68;;;2.80;;
81154;SDS011;70631;50.436;7.826;2023-11-19T10:17:49;7.57;;;2.38;;
81154;SDS011;70631;50.436;7.826;2023-11-19T10:20:15;10.30;;;2.58;;
81154;SDS011;70631;50.436;7.826;2023-11-19T10:22:41;11.38;;;2.03;;
81154;SDS011;70631;50.436;7.826;2023-11-19T10:25:39;17.50;;;3.33;;
81154;SDS011;70631;50.436;7.826;2023-11-19T10:27:59;6.75;;;2.22;;
81154;SDS011;70631;50.436;7.826;2023-11-19T10:30:28;9.30;;;3.28;;
81154;SDS011;70631;50.436;7.826;2023-11-19T10:33:05;14.25;;;3.30;;
81154;SDS011;70631;50.436;7.826;2023-11-19T10:35:34;10.68;;;3.05;;
81154;SDS011;70631;50.436;7.826;2023-11-19T10:38:01;10.55;;;3.15;;
81154;SDS011;70631;50.436;7.826;2023-11-19T10:40:39;9.68;;;3.30;;
81154;SDS011;70631;50.436;7.826;2023-11-19T10:43:05;9.02;;;3.53;;
81154;SDS011;70631;50.436;7.826;2023-11-19T10:45:31;10.07;;;2.03;;
81154;SDS011;70631;50.436;7.826;2023-11-19T10:47:58;9.80;;;3.47;;
81154;SDS011;70631;50.436;7.826;2023-11-19T10:50:24;10.75;;;2.30;;
81154;SDS011;70631;50.436;7.826;2023-11-19T10:52:50;14.93;;;4.32;;
81154;SDS011;70631;50.436;7.826;2023-11-19T10:55:20;10.20;;;2.42;;
81154;SDS011;70631;50.436;7.826;2023-11-19T10:57:51;10.40;;;2.95;;
81154;SDS011;70631;50.436;7.826;2023-11-19T11:00:17;10.90;;;2.70;;
81154;SDS011;70631;50.436;7.826;2023-11-19T11:02:45;8.10;;;2.55;;
81154;SDS011;70631;50.436;7.826;2023-11-19T11:05:20;9.52;;;2.22;;
81154;SDS011;70631;50.436;7.826;2023-11-19T11:07:46;8.30;;;1.98;;
81154;SDS011;70631;50.436;7.826;2023-11-19T11:10:14;10.90;;;2.13;;
81154;SDS011;70631;50.436;7.826;2023-11-19T11:12:41;14.45;;;2.80;;
81154;SDS011;70631;50.436;7.826;2023-11-19T11:15:06;12.25;;;2.30;;
81154;SDS011;70631;50.436;7.826;2023-11-19T11:17:33;16.63;;;2.17;;
81154;SDS011;70631;50.436;7.826;2023-11-19T11:19:59;9.75;;;2.05;;
81154;SDS011;70631;50.436;7.826;2023-11-19T11:22:24;7.97;;;1.88;;
81154;SDS011;70631;50.436;7.826;2023-11-19T11:25:13;9.55;;;2.55;;
81154;SDS011;70631;50.436;7.826;2023-11-19T11:28:08;10.95;;;2.15;;
81154;SDS011;70631;50.436;7.826;2023-11-19T11:30:54;8.48;;;1.83;;
81154;SDS011;70631;50.436;7.826;2023-11-19T11:38:50;8.88;;;2.05;;
81154;SDS011;70631;50.436;7.826;2023-11-19T11:54:28;6.80;;;2.00;;
81154;SDS011;70631;50.436;7.826;2023-11-19T11:57:02;9.30;;;2.00;;
81154;SDS011;70631;50.436;7.826;2023-11-19T12:02:08;11.50;;;2.20;;
81154;SDS011;70631;50.436;7.826;2023-11-19T12:04:35;9.82;;;1.77;;
81154;SDS011;70631;50.436;7.826;2023-11-19T12:07:05;7.82;;;1.67;;
81154;SDS011;70631;50.436;7.826;2023-11-19T12:09:31;9.25;;;2.55;;
81154;SDS011;70631;50.436;7.826;2023-11-19T12:19:57;9.88;;;2.10;;
81154;SDS011;70631;50.436;7.826;2023-11-19T12:22:26;8.20;;;2.13;;
81154;SDS011;70631;50.436;7.826;2023-11-19T12:24:53;7.40;;;1.50;;
81154;SDS011;70631;50.436;7.826;2023-11-19T12:27:19;8.48;;;1.92;;
81154;SDS011;70631;50.436;7.826;2023-11-19T12:29:47;4.80;;;1.77;;
81154;SDS011;70631;50.436;7.826;2023-11-19T12:32:12;7.50;;;2.00;;
81154;SDS011;70631;50.436;7.826;2023-11-19T12:34:38;9.30;;;1.92;;
81154;SDS011;70631;50.436;7.826;2023-11-19T12:37:03;7.22;;;1.65;;
81154;SDS011;70631;50.436;7.826;2023-11-19T12:39:30;8.77;;;2.15;;
81154;SDS011;70631;50.436;7.826;2023-11-19T12:41:55;10.73;;;2.45;;
81154;SDS011;70631;50.436;7.826;2023-11-19T12:44:21;10.60;;;2.10;;
81154;SDS011;70631;50.436;7.826;2023-11-19T12:46:47;4.85;;;1.77;;
81154;SDS011;70631;50.436;7.826;2023-11-19T12:49:25;11.82;;;1.60;;
81154;SDS011;70631;50.436;7.826;2023-11-19T12:51:50;12.93;;;2.10;;
81154;SDS011;70631;50.436;7.826;2023-11-19T12:54:15;11.47;;;2.77;;
81154;SDS011;70631;50.436;7.826;2023-11-19T12:56:51;5.33;;;1.63;;
81154;SDS011;70631;50.436;7.826;2023-11-19T12:59:19;6.63;;;2.33;;
81154;SDS011;70631;50.436;7.826;2023-11-19T13:01:54;8.93;;;3.77;;
81154;SDS011;70631;50.436;7.826;2023-11-19T13:04:23;4.97;;;1.65;;
81154;SDS011;70631;50.436;7.826;2023-11-19T13:06:52;5.97;;;1.83;;
81154;SDS011;70631;50.436;7.826;2023-11-19T13:09:24;5.77;;;2.00;;
81154;SDS011;70631;50.436;7.826;2023-11-19T13:11:53;5.43;;;1.70;;
81154;SDS011;70631;50.436;7.826;2023-11-19T13:14:22;4.13;;;1.60;;
81154;SDS011;70631;50.436;7.826;2023-11-19T13:16:48;7.57;;;1.52;;
81154;SDS011;70631;50.436;7.826;2023-11-19T13:19:14;5.88;;;2.17;;
81154;SDS011;70631;50.436;7.826;2023-11-19T13:21:41;26.85;;;9.65;;
81154;SDS011;70631;50.436;7.826;2023-11-19T13:24:07;24.00;;;13.60;;
81154;SDS011;70631;50.436;7.826;2023-11-19T13:26:32;9.48;;;2.47;;
81154;SDS011;70631;50.436;7.826;2023-11-19T13:28:57;7.43;;;1.87;;
81154;SDS011;70631;50.436;7.826;2023-11-19T13:31:23;8.97;;;2.33;;
81154;SDS011;70631;50.436;7.826;2023-11-19T13:33:48;7.82;;;2.28;;
81154;SDS011;70631;50.436;7.826;2023-11-19T13:36:13;9.13;;;1.77;;
81154;SDS011;70631;50.436;7.826;2023-11-19T13:38:39;8.20;;;1.50;;
81154;SDS011;70631;50.436;7.826;2023-11-19T13:41:06;7.38;;;2.20;;
81154;SDS011;70631;50.436;7.826;2023-11-19T13:43:34;7.30;;;1.30;;
81154;SDS011;70631;50.436;7.826;2023-11-19T13:45:59;6.20;;;1.75;;
81154;SDS011;70631;50.436;7.826;2023-11-19T13:48:24;5.10;;;1.30;;
81154;SDS011;70631;50.436;7.826;2023-11-19T13:50:51;10.57;;;1.70;;
81154;SDS011;70631;50.436;7.826;2023-11-19T13:53:16;8.00;;;2.17;;
81154;SDS011;70631;50.436;7.826;2023-11-19T13:55:42;5.50;;;1.70;;
81154;SDS011;70631;50.436;7.826;2023-11-19T13:58:08;5.53;;;2.33;;
81154;SDS011;70631;50.436;7.826;2023-11-19T14:00:33;11.18;;;2.78;;
81154;SDS011;70631;50.436;7.826;2023-11-19T14:02:59;5.70;;;1.67;;
81154;SDS011;70631;50.436;7.826;2023-11-19T14:05:24;10.47;;;3.03;;
81154;SDS011;70631;50.436;7.826;2023-11-19T14:07:49;11.23;;;2.10;;
81154;SDS011;70631;50.436;7.826;2023-11-19T14:10:16;8.65;;;1.48;;
81154;SDS011;70631;50.436;7.826;2023-11-19T14:12:42;8.27;;;1.80;;
81154;SDS011;70631;50.436;7.826;2023-11-19T14:15:08;6.28;;;1.80;;
81154;SDS011;70631;50.436;7.826;2023-11-19T14:17:37;25.15;;;2.67;;
81154;SDS011;70631;50.436;7.826;2023-11-19T14:20:02;6.78;;;1.98;;
81154;SDS011;70631;50.436;7.826;2023-11-19T14:22:41;6.10;;;1.15;;
81154;SDS011;70631;50.436;7.826;2023-11-19T14:25:08;7.93;;;1.38;;
81154;SDS011;70631;50.436;7.826;2023-11-19T14:27:38;5.07;;;1.25;;
81154;SDS011;70631;50.436;7.826;2023-11-19T14:30:05;10.05;;;1.75;;
81154;SDS011;70631;50.436;7.826;2023-11-19T14:32:31;6.00;;;1.45;;
81154;SDS011;70631;50.436;7.826;2023-11-19T14:34:57;7.05;;;1.75;;
81154;SDS011;70631;50.436;7.826;2023-11-19T14:37:22;6.53;;;1.30;;
81154;SDS011;70631;50.436;7.826;2023-11-19T14:39:47;5.20;;;1.27;;
81154;SDS011;70631;50.436;7.826;2023-11-19T14:42:15;8.52;;;1.90;;
81154;SDS011;70631;50.436;7.826;2023-11-19T14:44:40;7.17;;;1.83;;
81154;SDS011;70631;50.436;7.826;2023-11-19T14:47:06;5.60;;;1.83;;
81154;SDS011;70631;50.436;7.826;2023-11-19T14:49:31;4.03;;;0.93;;
81154;SDS011;70631;50.436;7.826;2023-11-19T14:51:56;5.57;;;1.37;;
81154;SDS011;70631;50.436;7.826;2023-11-19T14:54:22;6.97;;;1.40;;
81154;SDS011;70631;50.436;7.826;2023-11-19T14:56:47;8.30;;;1.57;;
81154;SDS011;70631;50.436;7.826;2023-11-19T14:59:12;3.77;;;1.57;;
81154;SDS011;70631;50.436;7.826;2023-11-19T15:01:37;9.43;;;2.10;;
81154;SDS011;70631;50.436;7.826;2023-11-19T15:04:03;8.20;;;1.93;;
81154;SDS011;70631;50.436;7.826;2023-11-19T15:06:28;6.03;;;1.33;;
81154;SDS011;70631;50.436;7.826;2023-11-19T15:08:55;6.95;;;1.77;;
81154;SDS011;70631;50.436;7.826;2023-11-19T15:11:21;7.95;;;2.03;;